Share

Alpine Airstrip, AK

Nuiqsut (PAQT) Elev 39 ft | 70.21 °N, 150.99 °W | Change Station

Current weather conditions updated 34 minutes ago

Overcast
Overcast
16 °F
Feels Like 4 °F
N
9
Wind Variable Wind from NNE
Sunrise 5:40 AM
Sunset 10:29 PM
Moon Waning Gibbous

Tomorrow is forecast to be nearly the same temperature as today.

Pressure 29.89 in
Visibility 8.0 miles
Clouds Overcast 3000 ft
Windchill 4 °F
Dew Point 12 °F
Humidity 86%
Rainfall 0.00 in
Snow Depth Not available.
UV 1 out of 16
Pollen Not available.
Air Quality Not available.
Flu Activity Sporadic
SPECI PAQT 182348Z AUTO 03008KT 8SM UP OVC030 M09/M11 A2989 RMK AO2 UPE23B36SNB17E21B23E36 P0000 TSNO

More Conditions Fewer Conditions

Pressure 29.89 in
Visibility 8.0 miles
Clouds Overcast 3000 ft
Windchill 4 °F
Dew Point 12 °F
Humidity 86%
Rainfall 0.00 in
Snow Depth Not available.
UV 1 out of 16
Pollen Not available.
Air Quality Not available.
Flu Activity Sporadic
SPECI PAQT 182348Z AUTO 03008KT 8SM UP OVC030 M09/M11 A2989 RMK AO2 UPE23B36SNB17E21B23E36 P0000 TSNO

More Conditions Fewer Conditions

10-Day Weather Forecast

Almanac

Astronomy

Apr. 18, 2014 Rise Set
Actual Time 5:40 AM AKDT 10:29 PM AKDT
Civil Twilight 4:07 AM AKDT 12:05 AM AKDT
Nautical Twilight Sun does not rise Sun does not rise
Astronomical Twilight Sun does not rise Sun does not rise
Moon 3:21 AM AKDT (4/18) 6:08 AM AKDT (4/18)
Length of Visible Light 19h 57m
Length of Day
16h 49m
Tomorrow will be 10m 5s longer.
Waning Gibbous, 84% of the Moon is Illuminated
Today
Waning Gibbous
Apr 22
Last Quarter
Apr 29
New
May 6
First Quarter
May 14
Full

Today's Extremes

State Highs State Lows

Community

  • Old barn
    Old barn
  • What's for Lunch?
    What's for Lunch?
  • SUNRISE THROUGH THE TREES.
    SUNRISE THROUGH THE TREES.
  • Dog Wood Blossoms
    Dog Wood Blossoms
  • Morning Light
    Morning Light

WunderPhotos

Upload Photos

1,702,548 photos uploaded!

WunderBlogs® & News

Nearby

Snow Depth

Station Depth Elevation
Imnaviat Creek 94 in 3050 ft
Atigun Pass 37 in 4800 ft
Coldfoot 25 in 1040 ft
Gobblers Knob 8 in 2030 ft
Fort Yukon 17 in 430 ft

Coastal Water Temperatures

Place Temperature
No Stations Reporting

Earthquake Activity

City Distance Mag. Time & Date
No recent earthquake activity has been reported nearby.
Minimum magnitude displayed is 2.5.

Nearby Weather Stations

Station Location Temp. Windchill Dew Point Humidity Wind Precip. Elev Updated Type
HADS JUDY CREEK NEAR NUIQSUT 17W , Barrow, AK 12 °F 12 °F - - North  at  - 0.00 in / hr 42 ft 3:00 PM AKDT MADIS

Show More Stations Show Fewer Stations

What do you think?

We're not finished. Please let us know what you like, what you don't like, and what you are still missing.